createdAt,value
2022-12-17T00:01:09.237Z,76.70
2022-12-17T00:04:29.292Z,76.75
2022-12-17T00:07:50.961Z,76.18
2022-12-17T00:11:12.502Z,76.80
2022-12-17T00:14:32.877Z,76.99
2022-12-17T00:17:53.757Z,77.28
2022-12-17T00:21:14.671Z,77.42
2022-12-17T00:24:36.451Z,77.41
2022-12-17T00:27:56.938Z,77.80
2022-12-17T00:31:17.137Z,77.94
2022-12-17T00:34:37.442Z,78.27
2022-12-17T00:37:57.881Z,78.12
2022-12-17T00:41:19.771Z,78.22
2022-12-17T00:44:40.017Z,78.68
2022-12-17T00:48:00.354Z,78.59
2022-12-17T00:51:20.562Z,78.74
2022-12-17T00:54:41.192Z,78.72
2022-12-17T00:58:02.848Z,78.36
2022-12-17T01:01:23.135Z,78.86
2022-12-17T01:04:43.324Z,79.32
2022-12-17T01:08:03.741Z,79.25
2022-12-17T01:11:26.125Z,78.85
2022-12-17T01:14:47.633Z,78.90
2022-12-17T01:18:08.008Z,79.82
2022-12-17T01:21:27.987Z,79.79
2022-12-17T01:24:48.427Z,79.72
2022-12-17T01:28:08.774Z,79.90
2022-12-17T01:31:34.926Z,80.17
2022-12-17T01:34:55.430Z,79.25
2022-12-17T01:38:15.646Z,80.17
2022-12-17T01:41:36.077Z,79.61
2022-12-17T01:45:05.926Z,79.67
2022-12-17T01:48:32.262Z,79.49
2022-12-17T01:51:53.114Z,79.08
2022-12-17T01:55:13.410Z,78.94
2022-12-17T01:58:33.661Z,78.88
2022-12-17T02:01:54.436Z,79.14
2022-12-17T02:05:15.968Z,79.38
2022-12-17T02:08:40.923Z,79.35
2022-12-17T02:12:04.754Z,79.00
2022-12-17T02:15:31.836Z,79.44
2022-12-17T02:18:55.823Z,79.82
2022-12-17T02:22:21.329Z,79.73
2022-12-17T02:25:45.923Z,79.77
2022-12-17T02:29:09.017Z,80.11
2022-12-17T02:32:29.923Z,79.73
2022-12-17T02:35:51.420Z,79.27
2022-12-17T02:39:11.625Z,80.08
2022-12-17T02:42:31.928Z,80.11
2022-12-17T02:45:53.500Z,79.92
2022-12-17T02:49:14.135Z,79.66
2022-12-17T02:52:36.486Z,78.87
2022-12-17T02:55:57.086Z,78.65
2022-12-17T02:59:17.507Z,78.00
2022-12-17T03:02:38.959Z,77.53
2022-12-17T03:05:59.307Z,76.68
2022-12-17T03:09:19.758Z,76.77
2022-12-17T03:12:40.080Z,76.59
2022-12-17T03:16:00.492Z,76.08
2022-12-17T03:19:22.758Z,76.41
2022-12-17T03:22:43.080Z,76.42
2022-12-17T03:26:03.272Z,75.92
2022-12-17T03:29:38.077Z,75.48
2022-12-17T03:32:58.615Z,75.59
2022-12-17T03:36:20.307Z,75.38
2022-12-17T03:39:40.695Z,75.51
2022-12-17T03:43:01.085Z,75.85
2022-12-17T03:46:23.322Z,74.91
2022-12-17T03:49:43.603Z,75.28
2022-12-17T03:53:05.301Z,74.99
2022-12-17T03:56:25.597Z,74.84
2022-12-17T03:59:45.996Z,74.93
2022-12-17T04:03:06.446Z,74.28
2022-12-17T04:06:26.738Z,74.82
2022-12-17T04:09:48.456Z,74.91
2022-12-17T04:13:08.938Z,75.11
2022-12-17T04:16:29.236Z,75.46
2022-12-17T04:19:49.665Z,75.75
2022-12-17T04:23:09.815Z,76.45
2022-12-17T04:26:31.421Z,76.00
2022-12-17T04:29:51.886Z,75.76
2022-12-17T04:33:11.994Z,75.02
2022-12-17T04:36:32.348Z,75.13
2022-12-17T04:39:52.899Z,74.67
2022-12-17T04:43:14.407Z,74.47
2022-12-17T04:46:34.852Z,74.71
2022-12-17T04:49:54.942Z,74.75
2022-12-17T04:53:18.929Z,74.49
2022-12-17T04:56:39.149Z,73.42
2022-12-17T05:00:01.006Z,73.10
2022-12-17T05:03:24.542Z,73.54
2022-12-17T05:06:44.772Z,74.34
2022-12-17T05:10:05.172Z,73.44
2022-12-17T05:13:25.583Z,74.07
2022-12-17T05:16:47.311Z,74.88
2022-12-17T05:20:19.149Z,74.31
2022-12-17T05:23:39.546Z,73.42
2022-12-17T05:26:59.840Z,73.63
2022-12-17T05:30:20.191Z,73.37
2022-12-17T05:33:41.882Z,73.94
2022-12-17T05:37:02.178Z,73.77
2022-12-17T05:40:22.961Z,73.84
2022-12-17T05:43:43.417Z,73.47
2022-12-17T05:47:03.620Z,73.67
2022-12-17T05:50:26.996Z,73.96
2022-12-17T05:53:47.279Z,74.05
2022-12-17T05:57:07.640Z,73.89
2022-12-17T06:00:28.995Z,74.10
2022-12-17T06:03:49.248Z,74.02
2022-12-17T06:07:13.190Z,74.61
2022-12-17T06:10:33.458Z,75.27
2022-12-17T06:13:53.902Z,76.14
2022-12-17T06:17:14.200Z,75.92
2022-12-17T06:20:34.661Z,75.17
2022-12-17T06:23:56.084Z,74.67
2022-12-17T06:27:16.421Z,74.29
2022-12-17T06:30:36.873Z,73.98
2022-12-17T06:34:02.787Z,73.80
2022-12-17T06:37:23.213Z,73.63
2022-12-17T06:40:44.953Z,73.74
2022-12-17T06:44:05.218Z,72.77
2022-12-17T06:47:25.825Z,73.90
2022-12-17T06:50:46.041Z,73.55
2022-12-17T06:54:06.337Z,73.00
2022-12-17T06:57:28.012Z,73.99
2022-12-17T07:00:48.559Z,73.70
2022-12-17T07:04:08.708Z,72.86
2022-12-17T07:07:29.126Z,72.52
2022-12-17T07:10:49.531Z,72.70
2022-12-17T07:14:11.104Z,72.60
2022-12-17T07:17:31.331Z,72.24
2022-12-17T07:20:51.665Z,72.55
2022-12-17T07:24:12.078Z,72.32
2022-12-17T07:27:32.637Z,72.12
2022-12-17T07:30:55.873Z,72.62
2022-12-17T07:34:16.051Z,72.54
2022-12-17T07:37:32.635Z,71.86
2022-12-17T07:40:54.412Z,72.23
2022-12-17T07:44:14.860Z,71.63
2022-12-17T07:47:36.596Z,71.51
2022-12-17T07:50:57.040Z,71.07
2022-12-17T07:54:17.463Z,71.53
2022-12-17T07:57:37.792Z,70.83
2022-12-17T08:00:58.024Z,70.86
2022-12-17T08:04:19.404Z,69.90
2022-12-17T08:07:39.834Z,69.51
2022-12-17T08:11:02.790Z,69.28
2022-12-17T08:14:23.080Z,69.77
2022-12-17T08:17:43.476Z,69.12
2022-12-17T08:21:04.857Z,69.40
2022-12-17T08:24:25.387Z,68.75
2022-12-17T08:27:45.887Z,69.15
2022-12-17T08:31:06.976Z,67.89
2022-12-17T08:34:27.162Z,67.96
2022-12-17T08:37:51.456Z,67.61
2022-12-17T08:41:11.694Z,66.37
2022-12-17T08:44:31.838Z,66.73
2022-12-17T08:47:52.188Z,66.11
2022-12-17T08:51:12.524Z,66.79
2022-12-17T08:54:34.346Z,65.99
2022-12-17T08:58:00.632Z,64.98
2022-12-17T09:01:21.094Z,64.94
2022-12-17T09:04:41.628Z,64.77
2022-12-17T09:08:01.914Z,64.67
2022-12-17T09:11:23.549Z,63.79
2022-12-17T09:14:43.632Z,62.99
2022-12-17T09:18:04.010Z,63.07
2022-12-17T09:21:25.634Z,63.58
2022-12-17T09:24:45.874Z,62.76
2022-12-17T09:28:07.524Z,61.55
2022-12-17T09:31:31.147Z,60.19
2022-12-17T09:34:55.708Z,60.50
2022-12-17T09:38:16.426Z,59.06
2022-12-17T09:41:44.782Z,59.28
2022-12-17T09:45:16.203Z,58.86
2022-12-17T09:48:41.752Z,59.63
2022-12-17T09:55:48.888Z,59.22
2022-12-17T09:59:09.104Z,59.22
2022-12-17T10:02:33.423Z,58.27
2022-12-17T10:05:54.422Z,58.29
2022-12-17T10:09:17.343Z,58.65
2022-12-17T10:12:38.915Z,60.26
2022-12-17T10:16:00.404Z,59.30
2022-12-17T10:19:22.305Z,58.93
2022-12-17T10:22:42.696Z,59.04
2022-12-17T10:26:09.674Z,58.58
2022-12-17T10:29:31.896Z,57.51
2022-12-17T10:32:48.475Z,56.64
2022-12-17T10:36:10.327Z,56.73
2022-12-17T10:39:34.796Z,55.85
2022-12-17T10:42:56.839Z,56.20
2022-12-17T10:46:16.932Z,56.73
2022-12-17T10:49:39.285Z,56.42
2022-12-17T10:53:03.199Z,55.42
2022-12-17T10:56:24.130Z,55.80
2022-12-17T10:59:50.718Z,57.11
2022-12-17T11:03:10.862Z,56.10
2022-12-17T11:06:32.926Z,56.33
2022-12-17T11:10:03.681Z,57.36
2022-12-17T11:13:29.421Z,58.91
2022-12-17T11:16:53.154Z,58.10
2022-12-17T11:20:15.906Z,58.20
2022-12-17T11:23:38.090Z,58.47
2022-12-17T11:27:00.480Z,58.52
2022-12-17T11:30:27.739Z,59.52
2022-12-17T11:33:55.343Z,58.35
2022-12-17T11:37:19.554Z,56.26
2022-12-17T11:40:44.085Z,54.31
2022-12-17T11:44:10.386Z,53.22
2022-12-17T11:47:36.724Z,54.55
2022-12-17T11:51:00.972Z,54.42
2022-12-17T11:54:25.801Z,53.59
2022-12-17T11:57:48.590Z,52.26
2022-12-17T12:01:26.025Z,52.27
2022-12-17T12:04:59.097Z,52.22
2022-12-17T12:08:24.329Z,52.47
2022-12-17T12:11:49.159Z,52.65
2022-12-17T12:15:15.087Z,53.19
2022-12-17T12:18:47.921Z,53.00
2022-12-17T12:22:14.020Z,53.54
2022-12-17T12:25:55.946Z,52.83
2022-12-17T12:29:19.258Z,54.74
2022-12-17T12:32:44.750Z,55.61
2022-12-17T12:36:06.538Z,55.64
2022-12-17T12:39:31.046Z,56.23
2022-12-17T12:42:58.116Z,57.61
2022-12-17T12:46:21.020Z,58.78
2022-12-17T12:49:44.321Z,58.04
2022-12-17T12:53:06.671Z,58.13
2022-12-17T12:56:45.091Z,58.01
2022-12-17T13:00:08.179Z,51.25
2022-12-17T13:03:39.815Z,40.51
2022-12-17T13:06:46.250Z,34.09
2022-12-17T13:09:52.612Z,31.61
2022-12-17T13:12:55.506Z,30.27
2022-12-17T13:16:04.590Z,28.85
2022-12-17T13:19:20.866Z,28.82
2022-12-17T13:22:29.524Z,28.11
2022-12-17T13:25:33.473Z,28.35
2022-12-17T13:28:36.069Z,28.39
2022-12-17T13:31:49.355Z,28.46
2022-12-17T13:35:10.073Z,28.45
2022-12-17T13:38:24.365Z,28.99
2022-12-17T13:41:31.259Z,30.13
2022-12-17T13:44:39.414Z,30.25
2022-12-17T13:47:42.180Z,30.16
2022-12-17T13:50:54.817Z,30.56
2022-12-17T13:53:59.045Z,30.25
2022-12-17T13:57:10.789Z,29.29
2022-12-17T14:00:21.415Z,27.23
2022-12-17T14:03:42.999Z,28.56
2022-12-17T14:06:47.255Z,36.93
2022-12-17T14:09:51.042Z,44.75
2022-12-17T14:13:02.043Z,49.23
2022-12-17T14:16:04.961Z,52.79
2022-12-17T14:19:10.241Z,55.05
2022-12-17T14:22:17.970Z,56.51
2022-12-17T14:25:22.943Z,58.74
2022-12-17T14:28:32.467Z,59.38
2022-12-17T14:31:35.147Z,60.95
2022-12-17T14:34:41.781Z,62.12
2022-12-17T14:37:48.540Z,62.79
2022-12-17T14:40:51.184Z,63.63
2022-12-17T14:44:00.013Z,64.02
2022-12-17T14:47:15.210Z,64.72
2022-12-17T14:50:27.997Z,66.01
2022-12-17T14:53:30.993Z,65.89
2022-12-17T14:56:34.116Z,67.23
2022-12-17T14:59:39.398Z,67.56
2022-12-17T15:02:43.787Z,67.93
2022-12-17T15:05:48.915Z,69.10
2022-12-17T15:08:53.308Z,69.21
2022-12-17T15:11:55.982Z,69.72
2022-12-17T15:15:00.051Z,70.18
2022-12-17T15:18:02.614Z,71.08
2022-12-17T15:21:05.474Z,70.94
2022-12-17T15:24:12.108Z,71.53
2022-12-17T15:27:16.275Z,71.14
2022-12-17T15:30:20.424Z,71.83
2022-12-17T15:33:23.015Z,72.68
2022-12-17T15:36:25.663Z,72.18
2022-12-17T15:39:28.310Z,73.55
2022-12-17T15:42:49.424Z,73.80
2022-12-17T15:45:54.863Z,74.07
2022-12-17T15:48:58.738Z,74.29
2022-12-17T15:52:01.310Z,74.25
2022-12-17T15:55:04.079Z,74.06
2022-12-17T15:58:08.090Z,74.37
2022-12-17T16:01:12.006Z,74.68
2022-12-17T16:04:20.243Z,75.20
2022-12-17T16:07:26.704Z,75.22
2022-12-17T16:10:29.882Z,75.19
2022-12-17T16:13:32.589Z,75.15
2022-12-17T16:16:36.783Z,75.59
2022-12-17T16:19:39.665Z,76.06
2022-12-17T16:22:42.414Z,75.42
2022-12-17T16:25:44.967Z,75.97
2022-12-17T16:28:47.895Z,75.73
2022-12-17T16:31:51.864Z,75.87
2022-12-17T16:34:54.458Z,75.29
2022-12-17T16:37:57.111Z,75.91
2022-12-17T16:41:01.171Z,76.17
2022-12-17T16:44:04.210Z,76.18
2022-12-17T16:47:08.476Z,76.15
2022-12-17T16:50:11.812Z,76.08
2022-12-17T16:53:14.800Z,75.92
2022-12-17T16:56:20.196Z,76.12
2022-12-17T16:59:23.408Z,76.03
2022-12-17T17:02:27.675Z,76.40
2022-12-17T17:05:32.946Z,76.21
2022-12-17T17:08:36.203Z,76.86
2022-12-17T17:11:39.072Z,76.69
2022-12-17T17:14:43.835Z,77.33
2022-12-17T17:17:54.789Z,77.97
2022-12-17T17:21:14.848Z,77.67
2022-12-17T17:24:21.653Z,78.19
2022-12-17T17:27:24.986Z,78.50
2022-12-17T17:30:27.671Z,78.58
2022-12-17T17:33:32.633Z,78.37
2022-12-17T17:36:35.221Z,77.85
2022-12-17T17:39:37.977Z,77.45
2022-12-17T17:42:40.823Z,77.67
2022-12-17T17:45:43.444Z,78.41
2022-12-17T17:48:53.884Z,78.39
2022-12-17T17:52:14.597Z,78.04
2022-12-17T17:55:17.537Z,78.19
2022-12-17T17:58:20.500Z,78.66
2022-12-17T18:01:25.126Z,79.17
2022-12-17T18:04:29.319Z,78.94
2022-12-17T18:07:31.976Z,78.68
2022-12-17T18:10:34.730Z,78.61
2022-12-17T18:13:55.923Z,79.13
2022-12-17T18:16:58.789Z,79.38
2022-12-17T18:20:02.723Z,79.05
2022-12-17T18:23:05.303Z,78.65
2022-12-17T18:26:09.552Z,78.19
2022-12-17T18:29:13.952Z,78.13
2022-12-17T18:32:16.707Z,78.37
2022-12-17T18:35:20.873Z,78.55
2022-12-17T18:38:23.505Z,78.76
2022-12-17T18:41:44.236Z,79.27
2022-12-17T18:44:46.853Z,79.41
2022-12-17T18:47:49.519Z,79.23
2022-12-17T18:50:53.700Z,79.05
2022-12-17T18:53:58.178Z,78.89
2022-12-17T18:57:02.164Z,78.99
2022-12-17T19:00:06.518Z,78.42
2022-12-17T19:03:10.232Z,78.99
2022-12-17T19:06:15.647Z,78.16
2022-12-17T19:09:19.969Z,77.99
2022-12-17T19:12:22.599Z,78.13
2022-12-17T19:15:25.119Z,78.15
2022-12-17T19:18:27.779Z,78.30
2022-12-17T19:21:33.594Z,78.40
2022-12-17T19:24:36.208Z,78.08
2022-12-17T19:27:39.137Z,78.03
2022-12-17T19:30:42.008Z,78.27
2022-12-17T19:33:44.805Z,78.16
2022-12-17T19:36:48.989Z,78.05
2022-12-17T19:39:51.514Z,78.11
2022-12-17T19:42:55.824Z,78.17
2022-12-17T19:46:03.769Z,78.02
2022-12-17T19:49:07.632Z,78.66
2022-12-17T19:52:11.607Z,78.02
2022-12-17T19:55:14.493Z,77.91
2022-12-17T19:58:17.172Z,77.65
2022-12-17T20:01:22.618Z,78.01
2022-12-17T20:04:25.285Z,78.06
2022-12-17T20:07:29.248Z,77.88
2022-12-17T20:10:33.631Z,77.89
2022-12-17T20:13:36.247Z,77.73
2022-12-17T20:16:40.577Z,77.74
2022-12-17T20:19:43.587Z,78.18
2022-12-17T20:22:47.494Z,77.92
2022-12-17T20:25:50.122Z,77.71
2022-12-17T20:28:53.341Z,77.82
2022-12-17T20:31:56.457Z,78.06
2022-12-17T20:34:59.109Z,78.53
2022-12-17T20:38:03.132Z,78.51
2022-12-17T20:41:10.112Z,78.51
2022-12-17T20:44:14.690Z,77.67
2022-12-17T20:47:17.285Z,78.25
2022-12-17T20:50:19.841Z,78.38
2022-12-17T20:53:23.781Z,78.33
2022-12-17T20:56:28.168Z,78.24
2022-12-17T20:59:31.047Z,78.30
2022-12-17T21:02:33.813Z,78.17
2022-12-17T21:05:36.900Z,78.21
2022-12-17T21:08:47.732Z,78.12
2022-12-17T21:11:52.178Z,78.31
2022-12-17T21:14:54.765Z,78.49
2022-12-17T21:17:57.573Z,78.63
2022-12-17T21:21:02.007Z,78.21
2022-12-17T21:24:06.764Z,78.58
2022-12-17T21:27:14.520Z,79.24
2022-12-17T21:30:17.578Z,79.11
2022-12-17T21:33:20.261Z,78.79
2022-12-17T21:36:23.972Z,78.32
2022-12-17T21:39:28.495Z,78.54
2022-12-17T21:42:48.639Z,78.33
2022-12-17T21:45:57.461Z,79.24
2022-12-17T21:49:01.520Z,78.46
2022-12-17T21:52:04.663Z,78.08
2022-12-17T21:55:11.608Z,78.00
2022-12-17T21:58:15.329Z,78.39
2022-12-17T22:01:21.558Z,78.98
2022-12-17T22:04:24.687Z,79.87
2022-12-17T22:07:30.273Z,79.61
2022-12-17T22:10:43.919Z,79.91
2022-12-17T22:14:08.819Z,79.49
2022-12-17T22:17:12.739Z,79.03
2022-12-17T22:20:17.407Z,79.74
2022-12-17T22:23:20.124Z,79.01
2022-12-17T22:26:24.409Z,78.66
2022-12-17T22:29:45.341Z,79.06
2022-12-17T22:33:09.483Z,78.40
2022-12-17T22:38:49.490Z,79.25
2022-12-17T22:44:31.970Z,78.64
2022-12-17T22:44:45.245Z,79.44
2022-12-17T22:46:54.749Z,79.24
2022-12-17T22:49:57.194Z,79.35
2022-12-17T22:53:00.423Z,79.09
2022-12-17T22:56:14.695Z,78.24
2022-12-17T22:59:22.831Z,79.23
2022-12-17T23:02:25.487Z,78.82
2022-12-17T23:05:29.531Z,78.66
2022-12-17T23:08:32.107Z,78.62
2022-12-17T23:11:34.835Z,78.67
2022-12-17T23:14:38.720Z,78.88
2022-12-17T23:17:41.358Z,78.18
2022-12-17T23:20:44.334Z,77.85
2022-12-17T23:23:47.183Z,78.06
2022-12-17T23:26:49.742Z,77.64
2022-12-17T23:29:53.746Z,78.25
2022-12-17T23:32:56.283Z,77.93
2022-12-17T23:36:03.982Z,78.11
2022-12-17T23:39:09.135Z,78.02
2022-12-17T23:42:11.783Z,77.81
2022-12-17T23:45:15.801Z,78.98
2022-12-17T23:48:18.597Z,78.51
2022-12-17T23:51:23.237Z,78.89
2022-12-17T23:54:26.136Z,78.72
2022-12-17T23:57:29.194Z,78.83
